createdAt,value
2018-09-04T00:01:03.675Z,18.23
2018-09-04T00:02:13.533Z,18.17
2018-09-04T00:03:23.705Z,18.19
2018-09-04T00:04:33.832Z,18.12
2018-09-04T00:05:44.009Z,18.15
2018-09-04T00:06:55.109Z,18.12
2018-09-04T00:08:05.526Z,18.09
2018-09-04T00:09:15.410Z,18.1
2018-09-04T00:10:26.546Z,18.1
2018-09-04T00:11:36.497Z,18.13
2018-09-04T00:12:46.819Z,18.13
2018-09-04T00:13:57.063Z,18.1
2018-09-04T00:15:07.193Z,18.1
2018-09-04T00:16:17.574Z,18.1
2018-09-04T00:17:27.695Z,18.15
2018-09-04T00:18:37.834Z,18.09
2018-09-04T00:19:48.043Z,18.1
2018-09-04T00:20:58.286Z,18.12
2018-09-04T00:22:08.538Z,18.13
2018-09-04T00:23:18.916Z,18.13
2018-09-04T00:24:29.038Z,18.12
2018-09-04T00:25:39.185Z,18.13
2018-09-04T00:26:49.532Z,18.1
2018-09-04T00:27:59.742Z,18.12
2018-09-04T00:29:09.669Z,18.09
2018-09-04T00:30:20.046Z,18.12
2018-09-04T00:31:30.333Z,18.1
2018-09-04T00:32:40.565Z,18.13
2018-09-04T00:33:50.742Z,18.04
2018-09-04T00:35:00.906Z,17.95
2018-09-04T00:36:11.161Z,18.02
2018-09-04T00:37:21.326Z,17.94
2018-09-04T00:38:31.623Z,17.87
2018-09-04T00:39:41.794Z,17.91
2018-09-04T00:40:51.972Z,17.95
2018-09-04T00:42:02.220Z,17.94
2018-09-04T00:43:12.403Z,17.87
2018-09-04T00:44:22.272Z,17.91
2018-09-04T00:45:32.403Z,17.92
2018-09-04T00:46:42.579Z,17.86
2018-09-04T00:47:52.483Z,17.85
2018-09-04T00:49:02.660Z,17.82
2018-09-04T00:50:12.839Z,17.7
2018-09-04T00:51:24.113Z,17.73
2018-09-04T00:52:34.990Z,17.79
2018-09-04T00:53:44.871Z,17.76
2018-09-04T00:54:55.047Z,17.75
2018-09-04T00:56:05.180Z,17.76
2018-09-04T00:57:15.362Z,17.65
2018-09-04T00:58:25.497Z,17.62
2018-09-04T00:59:36.595Z,17.65
2018-09-04T01:00:46.761Z,17.6
2018-09-04T01:01:56.976Z,17.58
2018-09-04T01:03:07.144Z,17.57
2018-09-04T01:04:16.918Z,17.61
2018-09-04T01:05:27.044Z,17.54
2018-09-04T01:06:37.182Z,17.54
2018-09-04T01:07:47.319Z,17.47
2018-09-04T01:08:57.455Z,17.47
2018-09-04T01:10:07.605Z,17.47
2018-09-04T01:11:17.804Z,17.46
2018-09-04T01:12:27.685Z,17.4
2018-09-04T01:13:38.014Z,17.5
2018-09-04T01:14:47.978Z,17.42
2018-09-04T01:15:58.159Z,17.45
2018-09-04T01:17:08.331Z,17.45
2018-09-04T01:18:18.534Z,17.38
2018-09-04T01:19:28.687Z,17.31
2018-09-04T01:20:38.826Z,17.31
2018-09-04T01:21:48.952Z,17.27
2018-09-04T01:22:58.723Z,17.27
2018-09-04T01:24:09.819Z,17.27
2018-09-04T01:25:19.982Z,17.27
2018-09-04T01:26:30.159Z,17.24
2018-09-04T01:27:40.294Z,17.31
2018-09-04T01:28:50.643Z,17.27
2018-09-04T01:30:00.767Z,17.28
2018-09-04T01:31:10.888Z,17.21
2018-09-04T01:32:21.015Z,17.19
2018-09-04T01:33:31.038Z,17.19
2018-09-04T01:34:40.670Z,17.2
2018-09-04T01:35:50.831Z,17.08
2018-09-04T01:37:00.737Z,17.19
2018-09-04T01:38:10.856Z,17.11
2018-09-04T01:39:20.955Z,17.08
2018-09-04T01:40:31.096Z,17.12
2018-09-04T01:41:40.954Z,17.04
2018-09-04T01:42:51.074Z,17.12
2018-09-04T01:44:01.074Z,16.98
2018-09-04T01:45:11.242Z,17.05
2018-09-04T01:46:21.140Z,16.98
2018-09-04T01:47:31.011Z,17.09
2018-09-04T01:48:41.121Z,17.02
2018-09-04T01:49:50.993Z,16.96
2018-09-04T01:51:01.123Z,17.01
2018-09-04T01:52:11.273Z,16.96
2018-09-04T01:53:21.421Z,16.91
2018-09-04T01:54:31.585Z,16.9
2018-09-04T01:55:41.713Z,16.91
2018-09-04T01:56:51.935Z,16.86
2018-09-04T01:58:02.066Z,16.84
2018-09-04T01:59:12.206Z,16.84
2018-09-04T02:00:22.314Z,16.83
2018-09-04T02:01:32.514Z,16.86
2018-09-04T02:02:42.839Z,16.75
2018-09-04T02:03:52.987Z,16.8
2018-09-04T02:05:02.893Z,16.74
2018-09-04T02:06:13.201Z,16.72
2018-09-04T02:07:23.058Z,16.79
2018-09-04T02:08:34.236Z,16.74
2018-09-04T02:09:44.501Z,16.69
2018-09-04T02:10:54.864Z,16.68
2018-09-04T02:12:04.864Z,16.75
2018-09-04T02:13:14.747Z,16.75
2018-09-04T02:14:25.906Z,16.74
2018-09-04T02:15:36.117Z,16.74
2018-09-04T02:16:46.271Z,16.74
2018-09-04T02:17:56.468Z,16.76
2018-09-04T02:19:06.578Z,16.72
2018-09-04T02:20:16.719Z,16.71
2018-09-04T02:21:26.864Z,16.66
2018-09-04T02:22:36.978Z,16.69
2018-09-04T02:23:47.059Z,16.66
2018-09-04T02:24:56.939Z,16.66
2018-09-04T02:26:07.251Z,16.57
2018-09-04T02:27:17.395Z,16.62
2018-09-04T02:28:27.653Z,16.59
2018-09-04T02:29:37.825Z,16.59
2018-09-04T02:30:47.960Z,16.59
2018-09-04T02:31:58.145Z,16.54
2018-09-04T02:33:08.608Z,16.5
2018-09-04T02:34:19.104Z,16.49
2018-09-04T02:35:29.354Z,16.49
2018-09-04T02:36:39.601Z,16.5
2018-09-04T02:37:49.464Z,16.5
2018-09-04T02:38:59.397Z,16.49
2018-09-04T02:40:09.758Z,16.51
2018-09-04T02:41:20.012Z,16.47
2018-09-04T02:42:30.189Z,16.54
2018-09-04T02:43:40.638Z,16.5
2018-09-04T02:44:50.757Z,16.43
2018-09-04T02:46:00.789Z,16.49
2018-09-04T02:47:10.935Z,16.43
2018-09-04T02:48:21.079Z,16.39
2018-09-04T02:49:31.192Z,16.46
2018-09-04T02:50:41.374Z,16.44
2018-09-04T02:51:52.522Z,16.46
2018-09-04T02:53:02.755Z,16.36
2018-09-04T02:54:12.881Z,16.38
2018-09-04T02:55:23.012Z,16.44
2018-09-04T02:56:34.113Z,16.38
2018-09-04T02:57:44.238Z,16.27
2018-09-04T02:58:54.098Z,16.35
2018-09-04T03:00:04.237Z,16.32
2018-09-04T03:01:14.562Z,16.28
2018-09-04T03:02:24.678Z,16.25
2018-09-04T03:03:34.842Z,16.19
2018-09-04T03:04:44.979Z,16.25
2018-09-04T03:05:54.598Z,16.14
2018-09-04T03:07:04.778Z,16.19
2018-09-04T03:08:14.932Z,16.16
2018-09-04T03:09:25.067Z,16.09
2018-09-04T03:10:35.219Z,16.11
2018-09-04T03:11:45.346Z,16.17
2018-09-04T03:12:55.358Z,16.13
2018-09-04T03:14:05.322Z,16.13
2018-09-04T03:15:15.498Z,16.11
2018-09-04T03:16:25.720Z,16.11
2018-09-04T03:17:35.940Z,16.16
2018-09-04T03:18:46.118Z,16.11
2018-09-04T03:19:56.303Z,16.1
2018-09-04T03:21:06.617Z,16.06
2018-09-04T03:22:16.479Z,16.11
2018-09-04T03:23:26.609Z,15.99
2018-09-04T03:24:36.760Z,16.01
2018-09-04T03:25:46.916Z,16.01
2018-09-04T03:26:56.834Z,16.02
2018-09-04T03:28:06.970Z,16.01
2018-09-04T03:29:17.222Z,15.98
2018-09-04T03:30:27.415Z,15.98
2018-09-04T03:31:37.355Z,15.98
2018-09-04T03:32:47.505Z,15.98
2018-09-04T03:33:57.625Z,15.94
2018-09-04T03:35:07.985Z,15.92
2018-09-04T03:36:18.167Z,15.79
2018-09-04T03:37:28.284Z,15.82
2018-09-04T03:38:38.441Z,15.95
2018-09-04T03:39:48.234Z,15.92
2018-09-04T03:40:58.380Z,15.91
2018-09-04T03:42:08.729Z,15.87
2018-09-04T03:43:19.040Z,15.8
2018-09-04T03:44:29.477Z,15.82
2018-09-04T03:45:40.166Z,15.79
2018-09-04T03:46:50.372Z,15.8
2018-09-04T03:48:01.468Z,15.78
2018-09-04T03:49:11.371Z,15.8
2018-09-04T03:50:21.523Z,15.82
2018-09-04T03:51:31.390Z,15.84
2018-09-04T03:52:41.704Z,15.75
2018-09-04T03:53:51.891Z,15.78
2018-09-04T03:55:02.060Z,15.76
2018-09-04T03:56:12.432Z,15.76
2018-09-04T03:57:22.771Z,15.75
2018-09-04T03:58:32.921Z,15.7
2018-09-04T03:59:43.673Z,15.73
2018-09-04T04:00:53.808Z,15.75
2018-09-04T04:02:03.945Z,15.73
2018-09-04T04:03:14.174Z,15.82
2018-09-04T04:04:24.545Z,15.79
2018-09-04T04:05:34.659Z,15.76
2018-09-04T04:06:44.788Z,15.79
2018-09-04T04:07:54.932Z,15.76
2018-09-04T04:09:05.063Z,15.75
2018-09-04T04:10:15.187Z,15.69
2018-09-04T04:11:25.329Z,15.68
2018-09-04T04:12:35.469Z,15.69
2018-09-04T04:13:45.361Z,15.69
2018-09-04T04:14:55.487Z,15.7
2018-09-04T04:16:05.600Z,15.69
2018-09-04T04:17:15.753Z,15.75
2018-09-04T04:18:25.922Z,15.64
2018-09-04T04:19:36.121Z,15.69
2018-09-04T04:20:46.491Z,15.61
2018-09-04T04:21:56.648Z,15.68
2018-09-04T04:23:06.881Z,15.58
2018-09-04T04:24:16.151Z,15.6
2018-09-04T04:25:26.346Z,15.64
2018-09-04T04:26:36.594Z,15.6
2018-09-04T04:27:46.971Z,15.58
2018-09-04T04:28:57.114Z,15.51
2018-09-04T04:30:07.265Z,15.57
2018-09-04T04:31:17.435Z,15.55
2018-09-04T04:32:27.588Z,15.5
2018-09-04T04:33:37.756Z,15.53
2018-09-04T04:34:48.122Z,15.54
2018-09-04T04:35:58.341Z,15.53
2018-09-04T04:37:08.585Z,15.51
2018-09-04T04:38:18.217Z,15.55
2018-09-04T04:39:28.614Z,15.43
2018-09-04T04:40:38.768Z,15.45
2018-09-04T04:41:48.984Z,15.45
2018-09-04T04:42:59.202Z,15.4
2018-09-04T04:44:08.725Z,15.4
2018-09-04T04:45:18.619Z,15.35
2018-09-04T04:46:28.754Z,15.43
2018-09-04T04:47:38.918Z,15.45
2018-09-04T04:48:48.930Z,15.4
2018-09-04T04:49:59.268Z,15.35
2018-09-04T04:51:09.062Z,15.39
2018-09-04T04:52:19.192Z,15.33
2018-09-04T04:53:29.569Z,15.35
2018-09-04T04:54:39.922Z,15.32
2018-09-04T04:55:49.865Z,15.33
2018-09-04T04:56:59.732Z,15.25
2018-09-04T04:58:09.864Z,15.27
2018-09-04T04:59:19.844Z,15.3
2018-09-04T05:00:30.362Z,15.33
2018-09-04T05:01:41.251Z,15.29
2018-09-04T05:02:51.393Z,15.24
2018-09-04T05:04:01.971Z,15.24
2018-09-04T05:05:12.089Z,15.23
2018-09-04T05:06:22.351Z,15.25
2018-09-04T05:07:32.493Z,15.24
2018-09-04T05:08:42.269Z,15.25
2018-09-04T05:09:52.467Z,15.25
2018-09-04T05:11:03.191Z,15.33
2018-09-04T05:12:13.691Z,15.29
2018-09-04T05:13:23.855Z,15.24
2018-09-04T05:14:33.758Z,15.32
2018-09-04T05:15:43.947Z,15.24
2018-09-04T05:16:54.202Z,15.25
2018-09-04T05:18:04.396Z,15.21
2018-09-04T05:19:14.608Z,15.23
2018-09-04T05:20:24.828Z,15.27
2018-09-04T05:21:34.977Z,15.27
2018-09-04T05:22:45.180Z,15.29
2018-09-04T05:23:55.703Z,15.23
2018-09-04T05:25:05.889Z,15.2
2018-09-04T05:26:16.021Z,15.27
2018-09-04T05:27:26.212Z,15.24
2018-09-04T05:28:36.438Z,15.29
2018-09-04T05:29:46.674Z,15.32
2018-09-04T05:30:56.479Z,15.33
2018-09-04T05:32:06.621Z,15.32
2018-09-04T05:33:16.747Z,15.32
2018-09-04T05:34:26.922Z,15.35
2018-09-04T05:35:37.044Z,15.43
2018-09-04T05:36:47.454Z,15.36
2018-09-04T05:37:57.592Z,15.43
2018-09-04T05:39:07.723Z,15.42
2018-09-04T05:40:17.822Z,15.4
2018-09-04T05:41:27.986Z,15.51
2018-09-04T05:42:38.114Z,15.58
2018-09-04T05:43:48.068Z,15.54
2018-09-04T05:44:58.144Z,15.58
2018-09-04T05:46:08.374Z,15.58
2018-09-04T05:47:18.564Z,15.66
2018-09-04T05:48:28.744Z,15.61
2018-09-04T05:49:38.953Z,15.63
2018-09-04T05:50:49.095Z,15.6
2018-09-04T05:51:59.456Z,15.61
2018-09-04T05:53:09.643Z,15.64
2018-09-04T05:54:19.899Z,15.64
2018-09-04T05:55:30.009Z,15.75
2018-09-04T05:56:40.255Z,15.79
2018-09-04T05:57:50.195Z,15.8
2018-09-04T05:59:00.314Z,15.8
2018-09-04T06:00:10.471Z,15.8
2018-09-04T06:01:20.618Z,15.96
2018-09-04T06:02:30.561Z,15.95
2018-09-04T06:03:40.700Z,15.99
2018-09-04T06:04:50.874Z,16.01
2018-09-04T06:06:00.763Z,15.98
2018-09-04T06:07:10.909Z,15.99
2018-09-04T06:08:21.102Z,16.02
2018-09-04T06:09:30.971Z,16.07
2018-09-04T06:10:41.109Z,16.13
2018-09-04T06:11:51.321Z,16.13
2018-09-04T06:13:01.452Z,16.21
2018-09-04T06:14:11.804Z,16.17
2018-09-04T06:15:21.928Z,16.27
2018-09-04T06:16:32.165Z,16.42
2018-09-04T06:17:42.044Z,16.38
2018-09-04T06:18:52.172Z,16.5
2018-09-04T06:20:02.518Z,16.53
2018-09-04T06:21:12.501Z,16.51
2018-09-04T06:22:22.686Z,16.66
2018-09-04T06:23:32.982Z,16.79
2018-09-04T06:24:43.117Z,16.93
2018-09-04T06:25:54.287Z,16.99
2018-09-04T06:27:04.461Z,17.11
2018-09-04T06:28:14.340Z,17.04
2018-09-04T06:29:24.704Z,17.09
2018-09-04T06:30:34.800Z,17.17
2018-09-04T06:31:44.665Z,17.31
2018-09-04T06:32:54.687Z,17.27
2018-09-04T06:34:05.334Z,17.3
2018-09-04T06:35:15.819Z,17.39
2018-09-04T06:36:26.126Z,17.38
2018-09-04T06:37:36.619Z,17.46
2018-09-04T06:38:46.790Z,17.55
2018-09-04T06:39:56.976Z,17.58
2018-09-04T06:41:07.213Z,17.61
2018-09-04T06:42:17.465Z,17.64
2018-09-04T06:43:27.625Z,17.67
2018-09-04T06:44:37.778Z,17.76
2018-09-04T06:45:47.906Z,17.75
2018-09-04T06:46:57.784Z,17.75
2018-09-04T06:48:07.934Z,17.86
2018-09-04T06:49:18.329Z,17.85
2018-09-04T06:50:28.233Z,17.94
2018-09-04T06:51:38.542Z,17.89
2018-09-04T06:52:48.688Z,18
2018-09-04T06:53:58.504Z,18
2018-09-04T06:55:08.626Z,18
2018-09-04T06:56:18.980Z,18.01
2018-09-04T06:57:29.101Z,18
2018-09-04T06:58:39.935Z,18.01
2018-09-04T06:59:50.386Z,17.98
2018-09-04T07:01:00.663Z,18.02
2018-09-04T07:02:10.816Z,18.01
2018-09-04T07:03:20.974Z,18.1
2018-09-04T07:04:31.287Z,18.09
2018-09-04T07:05:41.501Z,18.16
2018-09-04T07:06:51.161Z,18.23
2018-09-04T07:08:01.334Z,18.28
2018-09-04T07:09:11.428Z,18.38
2018-09-04T07:10:21.206Z,18.41
2018-09-04T07:11:31.364Z,18.38
2018-09-04T07:12:41.520Z,18.4
2018-09-04T07:13:51.658Z,18.4
2018-09-04T07:15:02.008Z,18.37
2018-09-04T07:16:12.170Z,18.37
2018-09-04T07:17:22.324Z,18.35
2018-09-04T07:18:32.116Z,18.47
2018-09-04T07:19:42.282Z,18.55
2018-09-04T07:20:52.535Z,18.62
2018-09-04T07:22:02.676Z,18.57
2018-09-04T07:23:12.542Z,18.69
2018-09-04T07:24:23.184Z,18.71
2018-09-04T07:25:33.168Z,18.87
2018-09-04T07:26:43.311Z,18.95
2018-09-04T07:27:53.528Z,18.97
2018-09-04T07:29:03.701Z,19.03
2018-09-04T07:30:14.154Z,19.15
2018-09-04T07:31:24.397Z,19.19
2018-09-04T07:32:34.621Z,19.25
2018-09-04T07:33:44.868Z,19.34
2018-09-04T07:34:54.778Z,19.4
2018-09-04T07:36:04.698Z,19.49
2018-09-04T07:37:14.906Z,19.58
2018-09-04T07:38:25.374Z,19.52
2018-09-04T07:39:35.551Z,19.65
2018-09-04T07:40:45.719Z,19.65
2018-09-04T07:41:56.092Z,19.85
2018-09-04T07:43:06.505Z,19.88
2018-09-04T07:44:16.497Z,19.93
2018-09-04T07:45:26.863Z,19.92
2018-09-04T07:46:37.025Z,19.95
2018-09-04T07:47:47.156Z,20.11
2018-09-04T07:48:56.897Z,20.26
2018-09-04T07:50:08.015Z,20.36
2018-09-04T07:51:18.214Z,20.36
2018-09-04T07:52:28.446Z,20.46
2018-09-04T07:53:38.734Z,20.51
2018-09-04T07:54:49.040Z,20.58
2018-09-04T07:55:58.824Z,20.82
2018-09-04T07:57:08.703Z,21.1
2018-09-04T07:58:18.919Z,21.72
2018-09-04T07:59:29.348Z,22.48
2018-09-04T08:00:39.498Z,23.06
2018-09-04T08:01:49.661Z,23.76
2018-09-04T08:02:59.533Z,24.06
2018-09-04T08:04:09.718Z,24.39
2018-09-04T08:05:19.921Z,24.78
2018-09-04T08:06:30.081Z,24.91
2018-09-04T08:07:40.266Z,25.15
2018-09-04T08:08:50.184Z,25.37
2018-09-04T08:10:00.444Z,25.52
2018-09-04T08:11:10.415Z,25.61
2018-09-04T08:12:20.325Z,25.77
2018-09-04T08:13:30.539Z,26.12
2018-09-04T08:14:40.668Z,26.25
2018-09-04T08:15:50.843Z,26.56
2018-09-04T08:17:00.740Z,26.78
2018-09-04T08:18:10.890Z,26.96
2018-09-04T08:19:21.079Z,26.9
2018-09-04T08:20:31.291Z,26.86
2018-09-04T08:21:42.149Z,27.04
2018-09-04T08:22:52.320Z,27.26
2018-09-04T08:24:02.514Z,27.53
2018-09-04T08:25:12.674Z,27.7
2018-09-04T08:26:22.938Z,27.87
2018-09-04T08:27:33.155Z,28.16
2018-09-04T08:28:43.294Z,28.32
2018-09-04T08:29:53.429Z,28.44
2018-09-04T08:31:03.587Z,28.72
2018-09-04T08:32:13.720Z,28.96
2018-09-04T08:33:24.304Z,29.17
2018-09-04T08:34:34.087Z,29.32
2018-09-04T08:35:44.231Z,29.48
2018-09-04T08:36:54.101Z,29.58
2018-09-04T08:38:04.250Z,29.73
2018-09-04T08:39:14.128Z,29.77
2018-09-04T08:40:24.296Z,30.04
2018-09-04T08:41:34.425Z,30.26
2018-09-04T08:42:44.609Z,30.38
2018-09-04T08:43:54.826Z,30.41
2018-09-04T08:45:04.746Z,30.44
2018-09-04T08:46:15.195Z,30.49
2018-09-04T08:47:25.637Z,30.39
2018-09-04T08:48:35.596Z,30.45
2018-09-04T08:49:45.843Z,30.6
2018-09-04T08:50:56.220Z,30.81
2018-09-04T08:52:06.119Z,30.96
2018-09-04T08:53:16.438Z,30.91
2018-09-04T08:54:28.167Z,30.83
2018-09-04T08:55:38.454Z,30.7
2018-09-04T08:56:48.652Z,30.93
2018-09-04T08:57:58.932Z,31.07
2018-09-04T08:59:09.164Z,31.23
2018-09-04T09:00:19.354Z,31.23
2018-09-04T09:01:29.229Z,31.28
2018-09-04T09:02:39.582Z,31.28
2018-09-04T09:03:49.884Z,31.35
2018-09-04T09:05:00.402Z,31.5
2018-09-04T09:06:10.348Z,31.63
2018-09-04T09:07:20.742Z,31.85
2018-09-04T09:08:31.024Z,31.98
2018-09-04T09:09:41.220Z,32.1
2018-09-04T09:10:53.462Z,31.99
2018-09-04T09:12:04.089Z,31.91
2018-09-04T09:13:17.715Z,31.95
2018-09-04T09:14:28.105Z,31.97
2018-09-04T09:15:38.252Z,31.9
2018-09-04T09:16:48.920Z,31.5
2018-09-04T09:18:01.419Z,31.57
2018-09-04T09:19:21.174Z,31.72
2018-09-04T09:20:35.550Z,31.94
2018-09-04T09:21:45.462Z,32.14
2018-09-04T09:22:55.896Z,32.35
2018-09-04T09:24:06.363Z,32.4
2018-09-04T09:25:16.549Z,32.31
2018-09-04T09:26:27.451Z,32.35
2018-09-04T09:27:37.877Z,32.56
2018-09-04T09:28:49.290Z,32.65
2018-09-04T09:29:59.457Z,32.87
2018-09-04T09:31:09.627Z,33.08
2018-09-04T09:32:22.803Z,32.98
2018-09-04T09:33:34.361Z,33.07
2018-09-04T09:34:44.609Z,32.75
2018-09-04T09:35:55.308Z,32.65
2018-09-04T09:38:24.049Z,32.84
2018-09-04T09:39:37.607Z,32.94
2018-09-04T09:43:27.635Z,33.2
2018-09-04T09:44:39.038Z,33.17
2018-09-04T09:45:48.931Z,33.05
2018-09-04T09:47:00.539Z,32.94
2018-09-04T09:48:11.616Z,32.6
2018-09-04T09:49:21.826Z,32.54
2018-09-04T09:50:32.089Z,32.35
2018-09-04T09:51:42.399Z,32.56
2018-09-04T09:52:52.706Z,32.81
2018-09-04T09:54:04.406Z,33
2018-09-04T09:55:18.118Z,33.19
2018-09-04T09:56:30.397Z,33.41
2018-09-04T09:57:40.882Z,33.41
2018-09-04T09:58:51.032Z,33.39
2018-09-04T10:00:02.673Z,33.34
2018-09-04T10:01:12.981Z,33.32
2018-09-04T10:02:23.142Z,33.08
2018-09-04T10:05:01.175Z,33.03
2018-09-04T10:06:11.402Z,32.88
2018-09-04T10:07:21.572Z,32.81
2018-09-04T10:08:31.954Z,32.68
2018-09-04T10:09:42.216Z,32.77
2018-09-04T10:10:52.622Z,32.66
2018-09-04T10:12:02.822Z,32.58
2018-09-04T10:13:13.044Z,32.66
2018-09-04T10:14:23.229Z,32.65
2018-09-04T10:15:33.425Z,32.84
2018-09-04T10:16:43.769Z,32.85
2018-09-04T10:17:53.930Z,32.81
2018-09-04T10:19:04.096Z,32.7
2018-09-04T10:20:14.279Z,32.51
2018-09-04T10:21:24.665Z,32.33
2018-09-04T10:22:35.101Z,32.06
2018-09-04T10:23:45.278Z,31.99
2018-09-04T10:24:55.284Z,31.57
2018-09-04T10:26:05.759Z,31.41
2018-09-04T10:27:15.985Z,31.19
2018-09-04T10:28:26.161Z,30.98
2018-09-04T10:29:36.313Z,30.69
2018-09-04T10:30:46.090Z,30.39
2018-09-04T10:31:56.330Z,30.19
2018-09-04T10:33:06.477Z,30.08
2018-09-04T10:34:16.712Z,30.02
2018-09-04T10:35:26.889Z,30.07
2018-09-04T10:36:37.106Z,30.07
2018-09-04T10:37:47.069Z,30.14
2018-09-04T10:38:56.987Z,30.27
2018-09-04T10:40:07.365Z,30.27
2018-09-04T10:41:17.575Z,30.25
2018-09-04T10:42:27.819Z,30.22
2018-09-04T10:43:37.981Z,30.25
2018-09-04T10:44:47.865Z,30.42
2018-09-04T10:45:58.044Z,30.61
2018-09-04T10:47:08.047Z,30.85
2018-09-04T10:48:18.367Z,31.01
2018-09-04T10:49:28.293Z,31.27
2018-09-04T10:50:38.447Z,31.47
2018-09-04T10:51:48.936Z,31.76
2018-09-04T10:52:59.207Z,31.98
2018-09-04T10:54:09.441Z,32.33
2018-09-04T10:55:19.675Z,32.48
2018-09-04T10:56:30.141Z,32.6
2018-09-04T10:57:40.543Z,32.7
2018-09-04T10:58:50.627Z,32.65
2018-09-04T11:00:01.000Z,32.51
2018-09-04T11:01:11.247Z,32.19
2018-09-04T11:02:21.776Z,31.88
2018-09-04T11:03:32.104Z,31.91
2018-09-04T11:04:42.347Z,32.03
2018-09-04T11:05:52.798Z,32.1
2018-09-04T11:07:04.171Z,32.32
2018-09-04T11:08:14.334Z,32.5
2018-09-04T11:09:24.643Z,32.62
2018-09-04T11:10:35.276Z,32.72
2018-09-04T11:11:45.216Z,32.78
2018-09-04T11:12:57.900Z,32.75
2018-09-04T11:14:10.076Z,32.56
2018-09-04T11:15:20.273Z,32.35
2018-09-04T11:16:30.521Z,32.29
2018-09-04T11:17:40.777Z,31.98
2018-09-04T11:18:50.878Z,31.69
2018-09-04T11:20:01.177Z,31.27
2018-09-04T11:21:11.386Z,30.94
2018-09-04T11:22:21.601Z,30.53
2018-09-04T11:23:32.937Z,30.26
2018-09-04T11:24:42.935Z,30.02
2018-09-04T11:25:54.189Z,29.63
2018-09-04T11:27:04.472Z,29.39
2018-09-04T11:28:14.749Z,29.1
2018-09-04T11:29:24.909Z,28.91
2018-09-04T11:30:35.256Z,28.74
2018-09-04T11:31:44.951Z,28.56
2018-09-04T11:32:55.144Z,28.39
2018-09-04T11:34:05.291Z,28.27
2018-09-04T11:35:15.489Z,28.01
2018-09-04T11:36:26.628Z,27.9
2018-09-04T11:37:36.857Z,27.77
2018-09-04T11:38:47.012Z,27.63
2018-09-04T11:39:57.002Z,27.67
2018-09-04T11:41:07.111Z,27.52
2018-09-04T11:42:17.287Z,27.49
2018-09-04T11:43:27.463Z,27.48
2018-09-04T11:44:37.340Z,27.55
2018-09-04T11:45:47.545Z,27.63
2018-09-04T11:46:58.462Z,27.64
2018-09-04T11:48:08.913Z,27.87
2018-09-04T11:49:19.122Z,27.97
2018-09-04T11:50:29.117Z,27.9
2018-09-04T11:51:39.273Z,28.09
2018-09-04T11:52:49.341Z,28.24
2018-09-04T11:53:59.507Z,28.49
2018-09-04T11:55:09.722Z,28.58
2018-09-04T11:56:19.978Z,28.87
2018-09-04T11:57:30.213Z,29.21
2018-09-04T11:58:40.504Z,29.39
2018-09-04T11:59:50.863Z,29.62
2018-09-04T12:01:01.046Z,30.02
2018-09-04T12:02:11.490Z,30.19
2018-09-04T12:03:21.963Z,30.45
2018-09-04T12:04:31.860Z,30.74
2018-09-04T12:05:41.517Z,31
2018-09-04T12:06:52.218Z,31.12
2018-09-04T12:08:02.408Z,31.19
2018-09-04T12:09:18.344Z,31.27
2018-09-04T12:10:28.557Z,31.25
2018-09-04T12:11:38.997Z,30.98
2018-09-04T12:12:49.750Z,30.91
2018-09-04T12:14:00.244Z,30.75
2018-09-04T12:15:10.451Z,30.6
2018-09-04T12:16:20.674Z,30.47
2018-09-04T12:17:30.925Z,30.2
2018-09-04T12:18:40.869Z,30
2018-09-04T12:19:50.783Z,29.8
2018-09-04T12:21:01.625Z,29.69
2018-09-04T12:22:12.692Z,29.57
2018-09-04T12:23:22.724Z,29.57
2018-09-04T12:24:32.616Z,29.5
2018-09-04T12:25:42.800Z,29.48
2018-09-04T12:26:53.062Z,29.58
2018-09-04T12:28:03.282Z,29.55
2018-09-04T12:29:13.189Z,29.53
2018-09-04T12:30:23.109Z,29.53
2018-09-04T12:31:32.990Z,29.35
2018-09-04T12:32:43.182Z,29.31
2018-09-04T12:33:54.613Z,29.32
2018-09-04T12:35:04.644Z,29.43
2018-09-04T12:36:14.883Z,29.39
2018-09-04T12:37:25.049Z,29.45
2018-09-04T12:38:35.500Z,29.55
2018-09-04T12:39:45.716Z,29.63
2018-09-04T12:40:55.348Z,29.55
2018-09-04T12:42:05.503Z,29.57
2018-09-04T12:43:15.078Z,29.66
2018-09-04T12:44:25.500Z,29.6
2018-09-04T12:45:36.177Z,29.54
2018-09-04T12:46:48.160Z,29.63
2018-09-04T12:47:59.596Z,29.55
2018-09-04T12:52:53.091Z,29.57
2018-09-04T12:54:05.706Z,29.45
2018-09-04T12:55:15.976Z,29.39
2018-09-04T12:56:25.886Z,29.36
2018-09-04T12:57:36.315Z,29.43
2018-09-04T13:00:02.463Z,29.44
2018-09-04T13:01:12.611Z,29.32
2018-09-04T13:02:22.667Z,29.35
2018-09-04T13:03:32.936Z,29.16
2018-09-04T13:04:43.164Z,29.06
2018-09-04T13:05:53.125Z,28.92
2018-09-04T13:07:03.345Z,28.79
2018-09-04T13:08:13.575Z,28.79
2018-09-04T13:09:23.995Z,28.79
2018-09-04T13:10:34.173Z,28.69
2018-09-04T13:11:44.443Z,28.58
2018-09-04T13:12:54.714Z,28.7
2018-09-04T13:14:05.346Z,28.61
2018-09-04T13:15:15.599Z,28.61
2018-09-04T13:17:37.502Z,28.24
2018-09-04T13:18:47.878Z,28.16
2018-09-04T13:19:57.763Z,27.92
2018-09-04T13:21:08.751Z,27.87
2018-09-04T13:22:21.030Z,27.72
2018-09-04T13:23:31.541Z,27.7
2018-09-04T13:24:41.819Z,27.57
2018-09-04T13:25:52.045Z,27.34
2018-09-04T13:27:03.183Z,27.34
2018-09-04T13:28:13.426Z,27.12
2018-09-04T13:29:24.426Z,27.11
2018-09-04T13:30:35.871Z,26.9
2018-09-04T13:31:46.006Z,26.9
2018-09-04T13:32:55.637Z,26.82
2018-09-04T13:34:06.412Z,26.66
2018-09-04T13:35:17.742Z,26.59
2018-09-04T13:36:28.001Z,26.55
2018-09-04T13:37:39.998Z,26.48
2018-09-04T13:38:52.344Z,26.46
2018-09-04T13:40:02.546Z,26.41
2018-09-04T13:41:12.745Z,26.37
2018-09-04T13:42:23.026Z,26.41
2018-09-04T13:43:33.165Z,26.34
2018-09-04T13:44:43.409Z,26.34
2018-09-04T13:45:53.584Z,26.27
2018-09-04T13:47:03.781Z,26.29
2018-09-04T13:48:15.298Z,26.21
2018-09-04T13:49:25.656Z,26.24
2018-09-04T13:50:36.604Z,26.21
2018-09-04T13:51:46.801Z,26.14
2018-09-04T13:52:56.980Z,26.22
2018-09-04T13:54:07.148Z,26.21
2018-09-04T13:55:17.366Z,26.29
2018-09-04T13:56:27.530Z,26.29
2018-09-04T13:57:37.752Z,26.31
2018-09-04T13:58:47.945Z,26.37
2018-09-04T13:59:58.145Z,26.46
2018-09-04T14:01:08.537Z,26.56
2018-09-04T14:02:18.797Z,26.56
2018-09-04T14:03:29.578Z,26.55
2018-09-04T14:04:41.748Z,26.62
2018-09-04T14:05:51.955Z,26.58
2018-09-04T14:07:02.369Z,26.59
2018-09-04T14:08:12.590Z,26.53
2018-09-04T14:09:22.919Z,26.51
2018-09-04T14:10:32.623Z,26.49
2018-09-04T14:11:42.802Z,26.31
2018-09-04T14:12:52.957Z,26.34
2018-09-04T14:14:03.071Z,26.34
2018-09-04T14:15:13.031Z,26.22
2018-09-04T14:16:23.457Z,26.16
2018-09-04T14:17:33.603Z,26.07
2018-09-04T14:18:43.768Z,26.09
2018-09-04T14:19:53.944Z,26.06
2018-09-04T14:21:04.492Z,26.02
2018-09-04T14:22:14.794Z,26
2018-09-04T14:23:25.016Z,25.97
2018-09-04T14:24:35.399Z,25.97
2018-09-04T14:25:45.234Z,25.93
2018-09-04T14:26:55.382Z,25.92
2018-09-04T14:28:05.621Z,25.96
2018-09-04T14:29:53.171Z,25.96
